createdAt,value
2023-01-27T00:01:04.878Z,0.00
2023-01-27T00:01:59.279Z,0.00
2023-01-27T00:02:59.279Z,0.00
2023-01-27T00:03:59.311Z,0.00
2023-01-27T00:04:59.634Z,0.00
2023-01-27T00:05:59.235Z,0.00
2023-01-27T00:06:59.218Z,0.00
2023-01-27T00:07:59.206Z,0.00
2023-01-27T00:08:59.183Z,0.00
2023-01-27T00:10:03.743Z,0.00
2023-01-27T00:10:59.276Z,0.00
2023-01-27T00:11:59.154Z,0.00
2023-01-27T00:12:59.136Z,0.00
2023-01-27T00:13:59.145Z,0.00
2023-01-27T00:14:59.114Z,0.00
2023-01-27T00:15:59.380Z,0.00
2023-01-27T00:16:59.196Z,0.00
2023-01-27T00:17:59.340Z,0.00
2023-01-27T00:18:59.071Z,0.00
2023-01-27T00:19:59.051Z,0.00
2023-01-27T00:20:59.047Z,0.00
2023-01-27T00:21:59.031Z,0.00
2023-01-27T00:22:59.060Z,0.00
2023-01-27T00:23:59.977Z,0.00
2023-01-27T00:24:59.946Z,0.00
2023-01-27T00:25:58.995Z,0.00
2023-01-27T00:26:58.972Z,0.00
2023-01-27T00:27:59.233Z,0.00
2023-01-27T00:28:59.051Z,0.00
2023-01-27T00:30:03.369Z,0.00
2023-01-27T00:31:00.287Z,0.00
2023-01-27T00:31:58.910Z,0.00
2023-01-27T00:32:58.886Z,0.00
2023-01-27T00:34:02.721Z,0.00
2023-01-27T00:34:59.833Z,0.00
2023-01-27T00:36:02.820Z,0.00
2023-01-27T00:36:58.837Z,0.00
2023-01-27T00:37:58.819Z,0.00
2023-01-27T00:38:58.809Z,0.00
2023-01-27T00:39:58.801Z,0.00
2023-01-27T00:40:58.803Z,0.00
2023-01-27T00:41:58.763Z,0.00
2023-01-27T00:42:58.753Z,0.00
2023-01-27T00:43:58.750Z,0.00
2023-01-27T00:44:59.674Z,0.00
2023-01-27T00:46:02.748Z,0.00
2023-01-27T00:47:00.473Z,0.00
2023-01-27T00:48:02.657Z,0.00
2023-01-27T00:48:58.678Z,0.00
2023-01-27T00:49:58.677Z,0.00
2023-01-27T00:50:58.674Z,0.00
2023-01-27T00:51:58.663Z,0.00
2023-01-27T00:52:58.664Z,0.00
2023-01-27T00:53:58.636Z,0.00
2023-01-27T00:54:58.614Z,0.00
2023-01-27T00:55:58.589Z,0.00
2023-01-27T00:56:58.599Z,0.00
2023-01-27T00:57:58.601Z,0.00
2023-01-27T00:58:58.605Z,0.00
2023-01-27T00:59:59.935Z,0.00
2023-01-27T01:00:58.547Z,0.00
2023-01-27T01:01:58.570Z,0.00
2023-01-27T01:02:58.531Z,0.00
2023-01-27T01:03:58.499Z,0.00
2023-01-27T01:04:58.525Z,0.00
2023-01-27T01:05:59.210Z,0.00
2023-01-27T01:07:02.368Z,0.00
2023-01-27T01:07:58.449Z,0.00
2023-01-27T01:08:58.455Z,0.00
2023-01-27T01:09:58.428Z,0.00
2023-01-27T01:10:58.438Z,0.00
2023-01-27T01:11:58.650Z,0.00
2023-01-27T01:12:58.414Z,0.00
2023-01-27T01:13:58.397Z,0.00
2023-01-27T01:14:58.363Z,0.00
2023-01-27T01:15:58.633Z,0.00
2023-01-27T01:16:58.467Z,0.00
2023-01-27T01:17:58.321Z,0.00
2023-01-27T01:18:59.021Z,0.00
2023-01-27T01:19:58.288Z,0.00
2023-01-27T01:20:58.283Z,0.00
2023-01-27T01:21:58.271Z,0.00
2023-01-27T01:22:58.279Z,0.00
2023-01-27T01:23:59.510Z,0.00
2023-01-27T01:24:59.193Z,0.00
2023-01-27T01:25:58.227Z,0.00
2023-01-27T01:26:58.212Z,0.00
2023-01-27T01:27:58.442Z,0.00
2023-01-27T01:29:02.302Z,0.00
2023-01-27T01:29:58.170Z,0.00
2023-01-27T01:30:58.235Z,0.00
2023-01-27T01:31:58.406Z,0.00
2023-01-27T01:32:58.884Z,0.00
2023-01-27T01:33:58.115Z,0.00
2023-01-27T01:34:58.135Z,0.00
2023-01-27T01:35:58.100Z,0.00
2023-01-27T01:36:58.087Z,0.00
2023-01-27T01:37:58.155Z,0.00
2023-01-27T01:38:58.052Z,0.00
2023-01-27T01:39:58.299Z,0.00
2023-01-27T01:41:01.920Z,0.00
2023-01-27T01:41:59.012Z,0.00
2023-01-27T01:42:58.024Z,0.00
2023-01-27T01:43:57.997Z,0.00
2023-01-27T01:44:57.983Z,0.00
2023-01-27T01:45:58.244Z,0.00
2023-01-27T01:46:58.744Z,0.00
2023-01-27T01:47:58.210Z,0.00
2023-01-27T01:48:57.947Z,0.00
2023-01-27T01:49:57.918Z,0.00
2023-01-27T01:50:57.898Z,0.00
2023-01-27T01:52:01.631Z,0.00
2023-01-27T01:52:58.288Z,0.00
2023-01-27T01:53:57.861Z,0.00
2023-01-27T01:54:58.823Z,0.00
2023-01-27T01:55:59.590Z,0.00
2023-01-27T01:57:01.666Z,0.00
2023-01-27T01:57:57.809Z,0.00
2023-01-27T01:58:57.869Z,0.00
2023-01-27T01:59:57.800Z,0.00
2023-01-27T02:01:01.550Z,0.00
2023-01-27T02:01:57.999Z,0.00
2023-01-27T02:02:58.022Z,0.00
2023-01-27T02:04:01.507Z,0.00
2023-01-27T02:05:01.667Z,0.00
2023-01-27T02:05:57.736Z,0.00
2023-01-27T02:06:57.722Z,0.00
2023-01-27T02:07:57.696Z,0.00
2023-01-27T02:08:57.954Z,0.00
2023-01-27T02:09:57.672Z,0.00
2023-01-27T02:11:01.605Z,0.00
2023-01-27T02:11:57.801Z,0.00
2023-01-27T02:12:57.633Z,0.00
2023-01-27T02:13:57.617Z,0.00
2023-01-27T02:14:57.605Z,0.00
2023-01-27T02:15:57.615Z,0.00
2023-01-27T02:16:57.660Z,0.00
2023-01-27T02:17:57.556Z,0.00
2023-01-27T02:18:57.572Z,0.00
2023-01-27T02:19:59.286Z,0.00
2023-01-27T02:21:01.409Z,0.00
2023-01-27T02:22:01.313Z,0.00
2023-01-27T02:22:58.524Z,0.00
2023-01-27T02:24:01.470Z,0.00
2023-01-27T02:24:57.490Z,0.00
2023-01-27T02:25:57.447Z,0.00
2023-01-27T02:26:57.471Z,0.00
2023-01-27T02:27:58.217Z,0.00
2023-01-27T02:28:57.447Z,0.00
2023-01-27T02:29:58.099Z,0.00
2023-01-27T02:30:57.728Z,0.00
2023-01-27T02:31:57.665Z,0.00
2023-01-27T02:32:57.374Z,0.00
2023-01-27T02:33:57.349Z,0.00
2023-01-27T02:34:57.730Z,0.00
2023-01-27T02:35:57.331Z,0.00
2023-01-27T02:36:57.321Z,0.00
2023-01-27T02:37:57.312Z,0.00
2023-01-27T02:38:57.552Z,0.00
2023-01-27T02:39:58.982Z,0.00
2023-01-27T02:40:57.648Z,0.00
2023-01-27T02:41:57.510Z,0.00
2023-01-27T02:42:58.437Z,0.00
2023-01-27T02:43:57.255Z,0.00
2023-01-27T02:45:01.150Z,0.00
2023-01-27T02:45:57.269Z,0.00
2023-01-27T02:46:57.236Z,0.00
2023-01-27T02:48:01.118Z,0.00
2023-01-27T02:48:57.166Z,0.00
2023-01-27T02:49:57.147Z,0.00
2023-01-27T02:50:57.147Z,0.00
2023-01-27T02:51:57.853Z,0.00
2023-01-27T02:52:57.414Z,0.00
2023-01-27T02:53:57.112Z,0.00
2023-01-27T02:54:57.104Z,0.00
2023-01-27T02:55:57.348Z,0.00
2023-01-27T02:56:57.076Z,0.00
2023-01-27T02:57:58.023Z,0.00
2023-01-27T02:58:57.429Z,0.00
2023-01-27T02:59:57.045Z,0.00
2023-01-27T03:00:57.048Z,0.00
2023-01-27T03:01:57.016Z,0.00
2023-01-27T03:02:57.024Z,0.00
2023-01-27T03:03:56.994Z,0.00
2023-01-27T03:04:57.077Z,0.00
2023-01-27T03:05:56.969Z,0.00
2023-01-27T03:06:56.964Z,0.00
2023-01-27T03:07:56.930Z,0.00
2023-01-27T03:08:56.930Z,0.00
2023-01-27T03:09:56.928Z,0.00
2023-01-27T03:10:56.935Z,0.00
2023-01-27T03:11:56.891Z,0.00
2023-01-27T03:12:56.868Z,0.00
2023-01-27T03:13:56.865Z,0.00
2023-01-27T03:15:00.584Z,0.00
2023-01-27T03:15:56.876Z,0.00
2023-01-27T03:16:56.858Z,0.00
2023-01-27T03:17:56.831Z,0.00
2023-01-27T03:18:57.064Z,0.00
2023-01-27T03:19:56.790Z,0.00
2023-01-27T03:20:56.772Z,0.00
2023-01-27T03:21:57.722Z,0.00
2023-01-27T03:22:56.786Z,0.00
2023-01-27T03:24:01.537Z,0.00
2023-01-27T03:24:57.013Z,0.00
2023-01-27T03:25:56.712Z,0.00
2023-01-27T03:26:56.693Z,0.00
2023-01-27T03:27:58.385Z,0.00
2023-01-27T03:28:56.682Z,0.00
2023-01-27T03:29:57.612Z,0.00
2023-01-27T03:30:56.733Z,0.00
2023-01-27T03:31:56.711Z,0.00
2023-01-27T03:32:58.497Z,0.00
2023-01-27T03:33:56.685Z,0.00
2023-01-27T03:34:56.614Z,0.00
2023-01-27T03:35:56.641Z,0.00
2023-01-27T03:36:56.589Z,0.00
2023-01-27T03:37:56.567Z,0.00
2023-01-27T03:38:56.548Z,0.00
2023-01-27T03:39:56.543Z,0.00
2023-01-27T03:40:56.546Z,0.00
2023-01-27T03:41:57.202Z,0.00
2023-01-27T03:42:56.506Z,0.00
2023-01-27T03:43:56.495Z,0.00
2023-01-27T03:44:56.469Z,0.00
2023-01-27T03:45:56.461Z,0.00
2023-01-27T03:46:56.498Z,0.00
2023-01-27T03:47:56.434Z,0.00
2023-01-27T03:48:56.703Z,0.00
2023-01-27T03:49:56.407Z,0.00
2023-01-27T03:50:57.067Z,0.00
2023-01-27T03:51:57.331Z,0.00
2023-01-27T03:52:56.684Z,0.00
2023-01-27T03:53:56.356Z,0.00
2023-01-27T03:54:56.360Z,0.00
2023-01-27T03:56:00.226Z,0.00
2023-01-27T03:56:56.320Z,0.00
2023-01-27T03:57:57.239Z,0.00
2023-01-27T03:58:56.432Z,0.00
2023-01-27T03:59:56.292Z,0.00
2023-01-27T04:00:56.290Z,0.00
2023-01-27T04:01:56.262Z,0.00
2023-01-27T04:03:00.200Z,0.00
2023-01-27T04:03:56.234Z,0.00
2023-01-27T04:04:57.304Z,0.00
2023-01-27T04:05:56.203Z,0.00
2023-01-27T04:06:57.155Z,0.00
2023-01-27T04:07:56.444Z,0.00
2023-01-27T04:08:56.175Z,0.00
2023-01-27T04:09:56.153Z,0.00
2023-01-27T04:10:56.286Z,0.00
2023-01-27T04:11:56.146Z,0.00
2023-01-27T04:12:56.127Z,0.00
2023-01-27T04:13:56.115Z,0.00
2023-01-27T04:14:57.042Z,0.00
2023-01-27T04:15:56.116Z,0.00
2023-01-27T04:16:57.407Z,0.00
2023-01-27T04:17:56.058Z,0.00
2023-01-27T04:18:56.046Z,0.00
2023-01-27T04:19:56.031Z,0.00
2023-01-27T04:20:56.018Z,0.00
2023-01-27T04:21:56.008Z,0.00
2023-01-27T04:22:56.029Z,0.00
2023-01-27T04:23:56.054Z,0.00
2023-01-27T04:24:56.227Z,0.00
2023-01-27T04:25:55.940Z,0.00
2023-01-27T04:27:00.093Z,0.00
2023-01-27T04:27:55.929Z,0.00
2023-01-27T04:28:56.019Z,0.00
2023-01-27T04:29:55.895Z,0.00
2023-01-27T04:30:56.600Z,0.00
2023-01-27T04:31:55.956Z,0.00
2023-01-27T04:32:56.139Z,0.00
2023-01-27T04:33:55.863Z,0.00
2023-01-27T04:34:55.962Z,0.00
2023-01-27T04:35:55.827Z,0.00
2023-01-27T04:36:55.823Z,0.00
2023-01-27T04:37:55.817Z,0.00
2023-01-27T04:38:55.791Z,0.00
2023-01-27T04:39:56.242Z,0.00
2023-01-27T04:40:59.744Z,0.00
2023-01-27T04:41:55.752Z,0.00
2023-01-27T04:42:55.742Z,0.00
2023-01-27T04:43:55.721Z,0.00
2023-01-27T04:44:55.718Z,0.00
2023-01-27T04:45:55.806Z,0.00
2023-01-27T04:46:55.735Z,0.00
2023-01-27T04:47:55.681Z,0.00
2023-01-27T04:48:55.668Z,0.00
2023-01-27T04:49:55.655Z,0.00
2023-01-27T04:50:56.320Z,0.00
2023-01-27T04:51:55.653Z,0.00
2023-01-27T04:52:55.654Z,0.00
2023-01-27T04:53:55.605Z,0.00
2023-01-27T04:54:56.553Z,0.00
2023-01-27T04:55:55.836Z,0.00
2023-01-27T04:56:55.834Z,0.00
2023-01-27T04:57:56.336Z,0.00
2023-01-27T04:58:55.838Z,0.00
2023-01-27T04:59:55.531Z,0.00
2023-01-27T05:00:55.782Z,0.00
2023-01-27T05:01:55.583Z,0.00
2023-01-27T05:02:56.279Z,0.00
2023-01-27T05:03:55.477Z,0.00
2023-01-27T05:05:00.001Z,0.00
2023-01-27T05:05:55.718Z,0.00
2023-01-27T05:06:55.439Z,0.00
2023-01-27T05:07:55.433Z,0.00
2023-01-27T05:08:55.419Z,0.00
2023-01-27T05:09:55.416Z,0.00
2023-01-27T05:10:55.753Z,0.00
2023-01-27T05:11:56.341Z,0.00
2023-01-27T05:12:56.071Z,0.00
2023-01-27T05:13:55.350Z,0.00
2023-01-27T05:14:55.337Z,0.00
2023-01-27T05:16:00.558Z,0.00
2023-01-27T05:16:55.710Z,0.00
2023-01-27T05:17:56.073Z,0.00
2023-01-27T05:18:55.292Z,0.00
2023-01-27T05:19:55.279Z,0.00
2023-01-27T05:20:55.522Z,0.00
2023-01-27T05:21:55.264Z,0.00
2023-01-27T05:22:56.434Z,0.00
2023-01-27T05:23:58.993Z,0.00
2023-01-27T05:24:56.182Z,0.00
2023-01-27T05:25:55.205Z,0.00
2023-01-27T05:26:55.195Z,0.00
2023-01-27T05:28:00.618Z,0.00
2023-01-27T05:28:55.181Z,0.00
2023-01-27T05:29:55.175Z,0.00
2023-01-27T05:30:55.185Z,0.00
2023-01-27T05:31:55.140Z,0.00
2023-01-27T05:32:55.115Z,0.00
2023-01-27T05:33:55.157Z,0.00
2023-01-27T05:34:55.097Z,0.00
2023-01-27T05:35:55.330Z,0.00
2023-01-27T05:36:55.079Z,0.00
2023-01-27T05:37:55.720Z,0.00
2023-01-27T05:38:55.054Z,0.00
2023-01-27T05:39:55.057Z,0.00
2023-01-27T05:40:55.019Z,0.00
2023-01-27T05:41:55.019Z,0.00
2023-01-27T05:42:55.000Z,0.00
2023-01-27T05:43:55.001Z,0.00
2023-01-27T05:44:55.211Z,0.00
2023-01-27T05:45:55.813Z,0.00
2023-01-27T05:46:55.897Z,0.00
2023-01-27T05:47:54.945Z,0.00
2023-01-27T05:48:54.969Z,0.00
2023-01-27T05:49:54.909Z,0.00
2023-01-27T05:50:54.896Z,0.00
2023-01-27T05:51:54.995Z,0.00
2023-01-27T05:52:54.875Z,0.00
2023-01-27T05:53:54.853Z,0.00
2023-01-27T05:54:55.523Z,0.00
2023-01-27T05:55:54.830Z,0.00
2023-01-27T05:56:55.613Z,0.00
2023-01-27T05:57:54.917Z,0.00
2023-01-27T05:58:55.739Z,0.00
2023-01-27T05:59:54.775Z,0.00
2023-01-27T06:00:54.785Z,0.00
2023-01-27T06:01:54.871Z,0.00
2023-01-27T06:02:54.776Z,0.00
2023-01-27T06:03:54.745Z,0.00
2023-01-27T06:04:54.716Z,0.00
2023-01-27T06:05:54.705Z,0.00
2023-01-27T06:06:54.698Z,0.00
2023-01-27T06:07:56.275Z,0.00
2023-01-27T06:08:54.655Z,0.00
2023-01-27T06:09:54.693Z,0.00
2023-01-27T06:10:54.774Z,0.00
2023-01-27T06:11:54.636Z,0.00
2023-01-27T06:12:54.608Z,0.00
2023-01-27T06:13:54.595Z,0.00
2023-01-27T06:14:54.577Z,0.00
2023-01-27T06:15:54.679Z,0.00
2023-01-27T06:16:54.568Z,0.00
2023-01-27T06:17:54.559Z,0.00
2023-01-27T06:18:54.539Z,0.00
2023-01-27T06:19:55.364Z,0.00
2023-01-27T06:20:55.099Z,0.00
2023-01-27T06:21:54.789Z,0.00
2023-01-27T06:22:54.492Z,0.00
2023-01-27T06:23:54.517Z,0.00
2023-01-27T06:24:54.909Z,0.00
2023-01-27T06:25:54.449Z,0.00
2023-01-27T06:26:54.429Z,0.00
2023-01-27T06:27:54.472Z,0.00
2023-01-27T06:28:54.413Z,0.00
2023-01-27T06:29:54.409Z,0.00
2023-01-27T06:30:54.418Z,0.00
2023-01-27T06:31:54.996Z,0.00
2023-01-27T06:32:54.372Z,0.00
2023-01-27T06:33:54.469Z,0.00
2023-01-27T06:34:54.412Z,0.00
2023-01-27T06:35:54.388Z,0.00
2023-01-27T06:36:54.612Z,0.00
2023-01-27T06:37:54.556Z,0.00
2023-01-27T06:38:54.296Z,0.00
2023-01-27T06:39:54.564Z,0.00
2023-01-27T06:40:54.942Z,0.00
2023-01-27T06:41:54.254Z,0.00
2023-01-27T06:42:54.255Z,0.00
2023-01-27T06:43:55.045Z,0.00
2023-01-27T06:44:54.215Z,0.00
2023-01-27T06:45:54.521Z,0.00
2023-01-27T06:46:54.185Z,0.00
2023-01-27T06:47:54.180Z,0.00
2023-01-27T06:48:54.162Z,0.00
2023-01-27T06:49:54.182Z,0.00
2023-01-27T06:50:54.190Z,0.00
2023-01-27T06:51:54.154Z,0.00
2023-01-27T06:52:54.117Z,0.00
2023-01-27T06:53:54.168Z,0.00
2023-01-27T06:54:54.168Z,0.00
2023-01-27T06:55:54.082Z,0.00
2023-01-27T06:56:54.165Z,0.00
2023-01-27T06:57:54.159Z,0.00
2023-01-27T06:58:54.030Z,0.00
2023-01-27T06:59:54.166Z,0.00
2023-01-27T07:00:54.013Z,0.00
2023-01-27T07:01:54.033Z,0.00
2023-01-27T07:02:54.833Z,0.00
2023-01-27T07:03:54.168Z,0.00
2023-01-27T07:04:55.715Z,0.00
2023-01-27T07:05:54.961Z,0.00
2023-01-27T07:06:54.230Z,0.00
2023-01-27T07:07:53.924Z,0.00
2023-01-27T07:08:55.443Z,0.00
2023-01-27T07:09:54.964Z,0.00
2023-01-27T07:10:54.153Z,0.00
2023-01-27T07:11:53.886Z,0.00
2023-01-27T07:12:54.804Z,0.00
2023-01-27T07:13:53.929Z,0.00
2023-01-27T07:14:53.945Z,0.00
2023-01-27T07:15:53.976Z,0.00
2023-01-27T07:16:53.814Z,0.00
2023-01-27T07:17:54.611Z,0.00
2023-01-27T07:18:54.159Z,0.00
2023-01-27T07:19:53.905Z,0.00
2023-01-27T07:20:53.791Z,0.00
2023-01-27T07:21:53.785Z,0.00
2023-01-27T07:22:54.155Z,5.62
2023-01-27T07:23:53.975Z,5.62
2023-01-27T07:24:53.846Z,5.62
2023-01-27T07:25:53.708Z,5.62
2023-01-27T07:26:53.676Z,5.62
2023-01-27T07:27:53.699Z,5.62
2023-01-27T07:28:54.498Z,5.62
2023-01-27T07:29:53.639Z,5.62
2023-01-27T07:30:53.646Z,5.62
2023-01-27T07:31:53.687Z,5.62
2023-01-27T07:32:53.940Z,5.62
2023-01-27T07:33:53.820Z,5.62
2023-01-27T07:34:53.581Z,5.62
2023-01-27T07:35:54.408Z,5.62
2023-01-27T07:36:53.619Z,5.62
2023-01-27T07:37:53.621Z,5.62
2023-01-27T07:38:53.988Z,5.62
2023-01-27T07:39:54.400Z,11.25
2023-01-27T07:40:53.513Z,11.25
2023-01-27T07:41:53.689Z,11.25
2023-01-27T07:42:53.950Z,11.25
2023-01-27T07:43:53.482Z,11.25
2023-01-27T07:44:53.950Z,11.25
2023-01-27T07:45:53.852Z,11.25
2023-01-27T07:46:53.955Z,11.25
2023-01-27T07:47:53.464Z,16.88
2023-01-27T07:48:53.461Z,16.88
2023-01-27T07:49:53.851Z,16.88
2023-01-27T07:50:53.638Z,16.88
2023-01-27T07:51:53.582Z,16.88
2023-01-27T07:52:53.451Z,16.88
2023-01-27T07:53:53.617Z,16.88
2023-01-27T07:54:53.464Z,16.88
2023-01-27T07:55:53.373Z,16.88
2023-01-27T07:56:54.114Z,16.88
2023-01-27T07:57:53.343Z,16.88
2023-01-27T07:58:53.535Z,16.88
2023-01-27T07:59:54.215Z,16.88
2023-01-27T08:00:53.277Z,16.88
2023-01-27T08:01:53.260Z,16.88
2023-01-27T08:02:53.307Z,16.88
2023-01-27T08:03:53.468Z,16.88
2023-01-27T08:05:52.025Z,22.50
2023-01-27T08:06:55.920Z,22.50
2023-01-27T08:07:52.233Z,22.50
2023-01-27T08:08:55.029Z,22.50
2023-01-27T08:09:55.258Z,28.12
2023-01-27T08:10:52.357Z,28.12
2023-01-27T08:11:53.889Z,28.12
2023-01-27T08:12:54.202Z,28.12
2023-01-27T08:13:54.214Z,28.12
2023-01-27T08:14:52.139Z,28.12
2023-01-27T08:15:58.508Z,28.12
2023-01-27T08:17:00.309Z,28.12
2023-01-27T08:17:52.966Z,33.75
2023-01-27T08:19:16.709Z,33.75
2023-01-27T08:20:22.309Z,33.75
2023-01-27T08:20:52.895Z,33.75
2023-01-27T08:21:54.107Z,33.75
2023-01-27T08:22:52.776Z,33.75
2023-01-27T08:23:54.373Z,33.75
2023-01-27T08:24:53.597Z,33.75
2023-01-27T08:25:54.129Z,33.75
2023-01-27T08:26:52.636Z,39.38
2023-01-27T08:28:07.184Z,33.75
2023-01-27T08:30:06.299Z,33.75
2023-01-27T08:31:06.875Z,39.38
2023-01-27T08:32:08.106Z,45.00
2023-01-27T08:33:10.126Z,50.62
2023-01-27T08:34:07.662Z,56.25
2023-01-27T08:35:06.438Z,61.88
2023-01-27T08:36:07.520Z,67.50
2023-01-27T08:37:29.282Z,61.88
2023-01-27T08:38:09.821Z,61.88
2023-01-27T08:39:06.774Z,56.25
2023-01-27T08:40:08.128Z,56.25
2023-01-27T08:41:11.066Z,50.62
2023-01-27T08:42:07.081Z,50.62
2023-01-27T08:43:08.301Z,50.62
2023-01-27T08:44:07.207Z,50.62
2023-01-27T08:45:08.317Z,50.62
2023-01-27T08:46:08.167Z,50.62
2023-01-27T08:47:08.598Z,45.00
2023-01-27T08:48:06.266Z,50.62
2023-01-27T08:49:07.962Z,56.25
2023-01-27T08:50:09.191Z,61.88
2023-01-27T08:51:07.626Z,67.50
2023-01-27T08:52:06.287Z,67.50
2023-01-27T08:53:10.073Z,78.75
2023-01-27T08:54:06.659Z,78.75
2023-01-27T08:55:07.205Z,78.75
2023-01-27T08:56:28.897Z,78.75
2023-01-27T08:57:08.607Z,67.50
2023-01-27T08:58:11.136Z,61.88
2023-01-27T08:59:06.135Z,73.12
2023-01-27T09:00:34.913Z,84.38
2023-01-27T09:01:08.181Z,101.25
2023-01-27T09:02:07.492Z,112.50
2023-01-27T09:03:09.081Z,101.25
2023-01-27T09:04:07.598Z,95.62
2023-01-27T09:05:12.075Z,84.38
2023-01-27T09:06:06.999Z,78.75
2023-01-27T09:07:07.674Z,84.38
2023-01-27T09:08:07.133Z,90.00
2023-01-27T09:09:14.652Z,95.62
2023-01-27T09:10:20.006Z,106.88
2023-01-27T09:11:21.988Z,112.50
2023-01-27T09:12:09.309Z,129.38
2023-01-27T09:13:06.872Z,140.62
2023-01-27T09:14:11.170Z,135.00
2023-01-27T09:15:11.987Z,129.38
2023-01-27T09:16:23.384Z,118.12
2023-01-27T09:17:13.929Z,106.88
2023-01-27T09:18:12.608Z,95.62
2023-01-27T09:19:22.004Z,95.62
2023-01-27T09:20:08.783Z,90.00
2023-01-27T09:21:13.306Z,95.62
2023-01-27T09:22:09.836Z,101.25
2023-01-27T09:23:13.270Z,112.50
2023-01-27T09:24:12.703Z,118.12
2023-01-27T09:25:08.620Z,112.50
2023-01-27T09:26:14.859Z,101.25
2023-01-27T09:27:30.001Z,101.25
2023-01-27T09:28:18.891Z,95.62
2023-01-27T09:29:14.490Z,90.00
2023-01-27T09:30:06.697Z,112.50
2023-01-27T09:31:37.867Z,135.00
2023-01-27T09:32:09.484Z,129.38
2023-01-27T09:33:24.098Z,123.75
2023-01-27T09:34:32.013Z,118.12
2023-01-27T09:35:07.956Z,118.12
2023-01-27T09:37:16.451Z,118.12
2023-01-27T09:38:16.088Z,123.75
2023-01-27T09:39:16.206Z,129.38
2023-01-27T09:40:16.067Z,135.00
2023-01-27T09:41:17.183Z,146.25
2023-01-27T09:42:17.621Z,146.25
2023-01-27T09:43:23.035Z,129.38
2023-01-27T09:44:22.014Z,135.00
2023-01-27T09:45:23.387Z,140.62
2023-01-27T09:46:19.628Z,146.25
2023-01-27T09:47:16.542Z,146.25
2023-01-27T09:48:20.063Z,146.25
2023-01-27T09:49:43.819Z,146.25
2023-01-27T09:50:43.127Z,135.00
2023-01-27T09:51:17.660Z,123.75
2023-01-27T09:52:18.342Z,118.12
2023-01-27T09:53:17.920Z,112.50
2023-01-27T09:54:20.613Z,101.25
2023-01-27T09:55:17.033Z,101.25
2023-01-27T09:56:19.942Z,101.25
2023-01-27T09:57:17.800Z,106.88
2023-01-27T09:58:38.488Z,118.12
2023-01-27T09:59:27.138Z,123.75
2023-01-27T10:00:24.906Z,118.12
2023-01-27T10:01:40.720Z,118.12
2023-01-27T10:02:25.010Z,112.50
2023-01-27T10:03:30.907Z,123.75
2023-01-27T10:04:20.485Z,140.62
2023-01-27T10:05:23.147Z,140.62
2023-01-27T10:06:18.491Z,140.62
2023-01-27T10:07:22.649Z,140.62
2023-01-27T10:08:17.677Z,146.25
2023-01-27T10:09:16.888Z,151.88
2023-01-27T10:10:17.499Z,157.50
2023-01-27T10:11:24.043Z,180.00
2023-01-27T10:12:19.189Z,185.62
2023-01-27T10:13:16.483Z,185.62
2023-01-27T10:14:16.996Z,180.00
2023-01-27T10:15:24.056Z,174.38
2023-01-27T10:16:19.277Z,168.75
2023-01-27T10:17:16.003Z,157.50
2023-01-27T10:18:17.763Z,146.25
2023-01-27T10:19:18.437Z,146.25
2023-01-27T10:20:16.260Z,146.25
2023-01-27T10:21:26.971Z,140.62
2023-01-27T10:22:19.918Z,146.25
2023-01-27T10:23:18.920Z,163.12
2023-01-27T10:24:18.094Z,174.38
2023-01-27T10:25:34.465Z,185.62
2023-01-27T10:26:17.640Z,202.50
2023-01-27T10:27:22.375Z,219.38
2023-01-27T10:28:38.672Z,230.62
2023-01-27T10:29:19.742Z,247.50
2023-01-27T10:30:16.907Z,253.12
2023-01-27T10:31:19.905Z,253.12
2023-01-27T10:32:17.213Z,258.75
2023-01-27T10:33:18.002Z,264.38
2023-01-27T10:34:22.368Z,264.38
2023-01-27T10:35:16.366Z,264.38
2023-01-27T10:36:17.535Z,258.75
2023-01-27T10:37:18.664Z,247.50
2023-01-27T10:38:39.289Z,247.50
2023-01-27T10:39:17.146Z,247.50
2023-01-27T10:40:17.623Z,247.50
2023-01-27T10:41:23.443Z,247.50
2023-01-27T10:42:18.355Z,241.88
2023-01-27T10:43:16.860Z,253.12
2023-01-27T10:44:22.874Z,264.38
2023-01-27T10:45:18.067Z,270.00
2023-01-27T10:46:15.858Z,264.38
2023-01-27T10:47:18.490Z,253.12
2023-01-27T10:48:17.335Z,236.25
2023-01-27T10:49:21.552Z,225.00
2023-01-27T10:50:18.178Z,230.62
2023-01-27T10:51:17.228Z,230.62
2023-01-27T10:52:17.396Z,225.00
2023-01-27T10:54:23.841Z,196.88
2023-01-27T10:55:23.756Z,191.25
2023-01-27T10:56:26.391Z,185.62
2023-01-27T10:57:23.749Z,185.62
2023-01-27T10:58:23.724Z,180.00
2023-01-27T10:59:23.792Z,174.38
2023-01-27T11:01:25.240Z,174.38
2023-01-27T11:02:23.896Z,163.12
2023-01-27T11:03:24.104Z,151.88
2023-01-27T11:04:24.030Z,168.75
2023-01-27T11:05:24.215Z,151.88
2023-01-27T11:06:23.694Z,140.62
2023-01-27T11:07:23.632Z,140.62
2023-01-27T11:08:24.314Z,151.88
2023-01-27T11:09:24.037Z,174.38
2023-01-27T11:10:23.563Z,196.88
2023-01-27T11:11:24.400Z,208.12
2023-01-27T11:12:23.865Z,219.38
2023-01-27T11:13:23.538Z,230.62
2023-01-27T11:14:23.635Z,236.25
2023-01-27T11:15:24.182Z,230.62
2023-01-27T11:16:23.666Z,230.62
2023-01-27T11:17:23.908Z,230.62
2023-01-27T11:18:23.968Z,236.25
2023-01-27T11:19:23.472Z,236.25
2023-01-27T11:20:23.915Z,230.62
2023-01-27T11:21:23.458Z,230.62
2023-01-27T11:22:23.447Z,230.62
2023-01-27T11:23:23.437Z,236.25
2023-01-27T11:24:23.603Z,241.88
2023-01-27T11:25:23.459Z,236.25
2023-01-27T11:26:23.865Z,225.00
2023-01-27T11:27:23.372Z,213.75
2023-01-27T11:28:23.350Z,202.50
2023-01-27T11:29:23.341Z,191.25
2023-01-27T11:30:23.510Z,174.38
2023-01-27T11:31:23.424Z,213.75
2023-01-27T11:32:23.324Z,151.88
2023-01-27T11:33:23.302Z,140.62
2023-01-27T11:34:23.542Z,140.62
2023-01-27T11:35:23.260Z,140.62
2023-01-27T11:36:23.293Z,140.62
2023-01-27T11:37:23.847Z,135.00
2023-01-27T11:38:23.257Z,135.00
2023-01-27T11:39:23.212Z,135.00
2023-01-27T11:40:23.211Z,129.38
2023-01-27T11:41:23.467Z,123.75
2023-01-27T11:42:23.249Z,118.12
2023-01-27T11:43:24.001Z,112.50
2023-01-27T11:44:23.164Z,112.50
2023-01-27T11:45:23.593Z,118.12
2023-01-27T11:46:23.154Z,129.38
2023-01-27T11:47:23.132Z,140.62
2023-01-27T11:48:23.686Z,151.88
2023-01-27T11:49:23.137Z,146.25
2023-01-27T11:50:23.139Z,146.25
2023-01-27T11:51:23.185Z,140.62
2023-01-27T11:52:23.395Z,135.00
2023-01-27T11:53:23.068Z,129.38
2023-01-27T11:54:23.211Z,118.12
2023-01-27T11:55:23.319Z,118.12
2023-01-27T11:56:22.996Z,118.12
2023-01-27T11:57:23.002Z,123.75
2023-01-27T11:58:26.914Z,123.75
2023-01-27T11:59:24.301Z,123.75
2023-01-27T12:00:23.931Z,123.75
2023-01-27T12:01:22.978Z,129.38
2023-01-27T12:02:23.034Z,135.00
2023-01-27T12:03:23.903Z,140.62
2023-01-27T12:04:23.886Z,140.62
2023-01-27T12:05:22.964Z,135.00
2023-01-27T12:06:22.888Z,129.38
2023-01-27T12:07:22.919Z,129.38
2023-01-27T12:08:22.883Z,123.75
2023-01-27T12:09:23.379Z,123.75
2023-01-27T12:10:22.849Z,118.12
2023-01-27T12:11:22.941Z,118.12
2023-01-27T12:12:22.943Z,106.88
2023-01-27T12:13:23.763Z,101.25
2023-01-27T12:14:22.932Z,101.25
2023-01-27T12:15:22.939Z,95.62
2023-01-27T12:16:26.777Z,95.62
2023-01-27T12:17:22.829Z,95.62
2023-01-27T12:18:22.735Z,95.62
2023-01-27T12:19:22.748Z,95.62
2023-01-27T12:20:22.982Z,95.62
2023-01-27T12:21:22.715Z,95.62
2023-01-27T12:22:22.718Z,101.25
2023-01-27T12:23:22.793Z,106.88
2023-01-27T12:24:22.724Z,112.50
2023-01-27T12:25:22.666Z,112.50
2023-01-27T12:26:22.912Z,106.88
2023-01-27T12:27:22.930Z,106.88
2023-01-27T12:28:22.631Z,101.25
2023-01-27T12:29:26.500Z,95.62
2023-01-27T12:30:22.716Z,95.62
2023-01-27T12:31:23.015Z,101.25
2023-01-27T12:32:22.867Z,106.88
2023-01-27T12:33:22.687Z,112.50
2023-01-27T12:34:22.536Z,123.75
2023-01-27T12:35:22.907Z,123.75
2023-01-27T12:36:22.540Z,118.12
2023-01-27T12:37:23.040Z,112.50
2023-01-27T12:38:23.323Z,112.50
2023-01-27T12:39:26.820Z,106.88
2023-01-27T12:40:23.294Z,101.25
2023-01-27T12:41:22.925Z,101.25
2023-01-27T12:42:22.618Z,106.88
2023-01-27T12:43:22.683Z,112.50
2023-01-27T12:44:22.906Z,106.88
2023-01-27T12:45:22.699Z,106.88
2023-01-27T12:46:22.696Z,106.88
2023-01-27T12:47:22.734Z,106.88
2023-01-27T12:48:22.932Z,112.50
2023-01-27T12:49:22.736Z,106.88
2023-01-27T12:50:22.901Z,106.88
2023-01-27T12:51:22.914Z,101.25
2023-01-27T12:52:22.339Z,95.62
2023-01-27T12:53:22.441Z,95.62
2023-01-27T12:54:22.571Z,101.25
2023-01-27T12:55:23.272Z,106.88
2023-01-27T12:56:22.265Z,106.88
2023-01-27T12:57:23.479Z,106.88
2023-01-27T12:58:23.481Z,101.25
2023-01-27T12:59:22.668Z,95.62
2023-01-27T13:00:22.696Z,90.00
2023-01-27T13:01:22.211Z,84.38
2023-01-27T13:02:22.644Z,84.38
2023-01-27T13:03:22.303Z,84.38
2023-01-27T13:04:22.881Z,84.38
2023-01-27T13:05:22.569Z,90.00
2023-01-27T13:06:22.157Z,101.25